sensor_id;sensor_type;location;lat;lon;timestamp;P1;durP1;ratioP1;P2;durP2;ratioP2
64714;SDS011;51144;53.002;6.506;2022-08-21T00:00:48;6.57;;;1.92;;
64714;SDS011;51144;53.002;6.506;2022-08-21T00:03:14;6.00;;;2.42;;
64714;SDS011;51144;53.002;6.506;2022-08-21T00:05:45;5.85;;;1.67;;
64714;SDS011;51144;53.002;6.506;2022-08-21T00:08:15;6.40;;;1.52;;
64714;SDS011;51144;53.002;6.506;2022-08-21T00:10:42;8.23;;;1.95;;
64714;SDS011;51144;53.002;6.506;2022-08-21T00:13:09;6.28;;;1.85;;
64714;SDS011;51144;53.002;6.506;2022-08-21T00:15:37;4.50;;;1.85;;
64714;SDS011;51144;53.002;6.506;2022-08-21T00:18:04;5.57;;;1.63;;
64714;SDS011;51144;53.002;6.506;2022-08-21T00:20:32;4.18;;;1.23;;
64714;SDS011;51144;53.002;6.506;2022-08-21T00:22:58;8.80;;;2.67;;
64714;SDS011;51144;53.002;6.506;2022-08-21T00:25:24;5.88;;;1.98;;
64714;SDS011;51144;53.002;6.506;2022-08-21T00:27:50;7.75;;;2.50;;
64714;SDS011;51144;53.002;6.506;2022-08-21T00:30:17;6.80;;;2.45;;
64714;SDS011;51144;53.002;6.506;2022-08-21T00:32:44;5.40;;;1.95;;
64714;SDS011;51144;53.002;6.506;2022-08-21T00:35:11;7.57;;;1.58;;
64714;SDS011;51144;53.002;6.506;2022-08-21T00:37:42;9.63;;;2.70;;
64714;SDS011;51144;53.002;6.506;2022-08-21T00:40:10;7.65;;;2.10;;
64714;SDS011;51144;53.002;6.506;2022-08-21T00:42:39;12.32;;;2.85;;
64714;SDS011;51144;53.002;6.506;2022-08-21T00:45:05;5.03;;;2.17;;
64714;SDS011;51144;53.002;6.506;2022-08-21T00:47:31;3.80;;;2.05;;
64714;SDS011;51144;53.002;6.506;2022-08-21T00:49:57;6.22;;;2.03;;
64714;SDS011;51144;53.002;6.506;2022-08-21T00:52:24;4.25;;;2.03;;
64714;SDS011;51144;53.002;6.506;2022-08-21T00:54:53;5.82;;;2.35;;
64714;SDS011;51144;53.002;6.506;2022-08-21T00:57:22;4.55;;;1.90;;
64714;SDS011;51144;53.002;6.506;2022-08-21T00:59:53;6.05;;;1.77;;
64714;SDS011;51144;53.002;6.506;2022-08-21T01:02:21;6.70;;;1.80;;
64714;SDS011;51144;53.002;6.506;2022-08-21T01:04:50;7.25;;;1.58;;
64714;SDS011;51144;53.002;6.506;2022-08-21T01:07:16;3.65;;;2.30;;
64714;SDS011;51144;53.002;6.506;2022-08-21T01:09:42;5.63;;;1.55;;
64714;SDS011;51144;53.002;6.506;2022-08-21T01:12:10;7.05;;;2.40;;
64714;SDS011;51144;53.002;6.506;2022-08-21T01:14:36;3.45;;;1.98;;
64714;SDS011;51144;53.002;6.506;2022-08-21T01:17:04;7.57;;;2.83;;
64714;SDS011;51144;53.002;6.506;2022-08-21T01:19:30;8.43;;;2.53;;
64714;SDS011;51144;53.002;6.506;2022-08-21T01:21:55;11.45;;;2.55;;
64714;SDS011;51144;53.002;6.506;2022-08-21T01:24:22;5.72;;;2.35;;
64714;SDS011;51144;53.002;6.506;2022-08-21T01:26:48;5.05;;;2.03;;
64714;SDS011;51144;53.002;6.506;2022-08-21T01:32:10;6.70;;;2.75;;
64714;SDS011;51144;53.002;6.506;2022-08-21T01:34:41;12.82;;;3.20;;
64714;SDS011;51144;53.002;6.506;2022-08-21T01:37:08;9.88;;;3.28;;
64714;SDS011;51144;53.002;6.506;2022-08-21T01:39:34;9.18;;;3.35;;
64714;SDS011;51144;53.002;6.506;2022-08-21T01:42:00;8.25;;;3.92;;
64714;SDS011;51144;53.002;6.506;2022-08-21T01:44:28;8.38;;;3.65;;
64714;SDS011;51144;53.002;6.506;2022-08-21T01:46:54;9.57;;;3.45;;
64714;SDS011;51144;53.002;6.506;2022-08-21T01:49:21;4.90;;;3.22;;
64714;SDS011;51144;53.002;6.506;2022-08-21T01:51:46;8.48;;;3.50;;
64714;SDS011;51144;53.002;6.506;2022-08-21T01:54:12;9.10;;;3.17;;
64714;SDS011;51144;53.002;6.506;2022-08-21T01:56:39;4.85;;;2.85;;
64714;SDS011;51144;53.002;6.506;2022-08-21T01:59:10;11.45;;;4.05;;
64714;SDS011;51144;53.002;6.506;2022-08-21T02:01:36;9.52;;;3.20;;
64714;SDS011;51144;53.002;6.506;2022-08-21T02:04:04;9.32;;;3.60;;
64714;SDS011;51144;53.002;6.506;2022-08-21T02:06:30;8.80;;;4.13;;
64714;SDS011;51144;53.002;6.506;2022-08-21T02:08:56;8.48;;;3.65;;
64714;SDS011;51144;53.002;6.506;2022-08-21T02:11:22;12.50;;;3.70;;
64714;SDS011;51144;53.002;6.506;2022-08-21T02:13:48;6.63;;;3.35;;
64714;SDS011;51144;53.002;6.506;2022-08-21T02:16:14;7.93;;;3.33;;
64714;SDS011;51144;53.002;6.506;2022-08-21T02:18:40;8.98;;;4.25;;
64714;SDS011;51144;53.002;6.506;2022-08-21T02:21:06;8.95;;;4.38;;
64714;SDS011;51144;53.002;6.506;2022-08-21T02:23:31;6.57;;;3.95;;
64714;SDS011;51144;53.002;6.506;2022-08-21T02:25:58;8.20;;;3.33;;
64714;SDS011;51144;53.002;6.506;2022-08-21T02:28:28;7.95;;;4.03;;
64714;SDS011;51144;53.002;6.506;2022-08-21T02:30:55;7.20;;;3.92;;
64714;SDS011;51144;53.002;6.506;2022-08-21T02:33:21;7.80;;;4.10;;
64714;SDS011;51144;53.002;6.506;2022-08-21T02:35:47;7.00;;;4.30;;
64714;SDS011;51144;53.002;6.506;2022-08-21T02:38:14;9.30;;;4.45;;
64714;SDS011;51144;53.002;6.506;2022-08-21T02:40:43;5.88;;;4.20;;
64714;SDS011;51144;53.002;6.506;2022-08-21T02:43:10;10.23;;;4.65;;
64714;SDS011;51144;53.002;6.506;2022-08-21T02:45:37;7.60;;;5.38;;
64714;SDS011;51144;53.002;6.506;2022-08-21T02:48:04;5.32;;;4.53;;
64714;SDS011;51144;53.002;6.506;2022-08-21T02:50:33;8.48;;;4.88;;
64714;SDS011;51144;53.002;6.506;2022-08-21T02:53:01;10.80;;;4.95;;
64714;SDS011;51144;53.002;6.506;2022-08-21T02:55:29;8.95;;;5.05;;
64714;SDS011;51144;53.002;6.506;2022-08-21T02:57:56;9.80;;;5.00;;
64714;SDS011;51144;53.002;6.506;2022-08-21T03:00:23;12.38;;;4.53;;
64714;SDS011;51144;53.002;6.506;2022-08-21T03:02:51;10.88;;;4.63;;
64714;SDS011;51144;53.002;6.506;2022-08-21T03:05:18;8.63;;;4.72;;
64714;SDS011;51144;53.002;6.506;2022-08-21T03:10:37;7.38;;;4.03;;
64714;SDS011;51144;53.002;6.506;2022-08-21T03:13:05;8.70;;;5.03;;
64714;SDS011;51144;53.002;6.506;2022-08-21T03:15:31;12.00;;;4.97;;
64714;SDS011;51144;53.002;6.506;2022-08-21T03:18:01;9.90;;;4.63;;
64714;SDS011;51144;53.002;6.506;2022-08-21T03:20:28;7.72;;;4.00;;
64714;SDS011;51144;53.002;6.506;2022-08-21T03:22:56;10.95;;;5.25;;
64714;SDS011;51144;53.002;6.506;2022-08-21T03:25:22;8.55;;;4.05;;
64714;SDS011;51144;53.002;6.506;2022-08-21T03:27:49;9.00;;;4.32;;
64714;SDS011;51144;53.002;6.506;2022-08-21T03:30:15;10.35;;;4.78;;
64714;SDS011;51144;53.002;6.506;2022-08-21T03:32:42;10.00;;;4.65;;
64714;SDS011;51144;53.002;6.506;2022-08-21T03:35:08;10.85;;;4.82;;
64714;SDS011;51144;53.002;6.506;2022-08-21T03:37:34;8.15;;;4.25;;
64714;SDS011;51144;53.002;6.506;2022-08-21T03:40:00;7.80;;;4.28;;
64714;SDS011;51144;53.002;6.506;2022-08-21T03:42:28;9.35;;;4.40;;
64714;SDS011;51144;53.002;6.506;2022-08-21T03:44:53;7.93;;;4.15;;
64714;SDS011;51144;53.002;6.506;2022-08-21T03:47:19;5.40;;;3.63;;
64714;SDS011;51144;53.002;6.506;2022-08-21T03:49:44;9.10;;;4.15;;
64714;SDS011;51144;53.002;6.506;2022-08-21T03:52:10;9.32;;;4.07;;
64714;SDS011;51144;53.002;6.506;2022-08-21T03:54:36;10.75;;;4.20;;
64714;SDS011;51144;53.002;6.506;2022-08-21T03:57:01;7.93;;;3.63;;
64714;SDS011;51144;53.002;6.506;2022-08-21T03:59:27;9.00;;;4.15;;
64714;SDS011;51144;53.002;6.506;2022-08-21T04:04:19;5.78;;;3.38;;
64714;SDS011;51144;53.002;6.506;2022-08-21T04:06:45;6.57;;;4.15;;
64714;SDS011;51144;53.002;6.506;2022-08-21T04:09:15;10.65;;;3.92;;
64714;SDS011;51144;53.002;6.506;2022-08-21T04:11:41;11.30;;;4.40;;
64714;SDS011;51144;53.002;6.506;2022-08-21T04:14:07;7.18;;;3.45;;
64714;SDS011;51144;53.002;6.506;2022-08-21T04:16:39;10.80;;;3.90;;
64714;SDS011;51144;53.002;6.506;2022-08-21T04:19:06;7.57;;;3.33;;
64714;SDS011;51144;53.002;6.506;2022-08-21T04:21:35;9.75;;;4.20;;
64714;SDS011;51144;53.002;6.506;2022-08-21T04:24:05;5.97;;;3.58;;
64714;SDS011;51144;53.002;6.506;2022-08-21T04:26:32;7.97;;;3.22;;
64714;SDS011;51144;53.002;6.506;2022-08-21T04:28:59;6.95;;;3.28;;
64714;SDS011;51144;53.002;6.506;2022-08-21T04:31:25;11.90;;;4.38;;
64714;SDS011;51144;53.002;6.506;2022-08-21T04:33:53;9.70;;;3.58;;
64714;SDS011;51144;53.002;6.506;2022-08-21T04:36:19;7.88;;;3.75;;
64714;SDS011;51144;53.002;6.506;2022-08-21T04:38:45;12.88;;;3.83;;
64714;SDS011;51144;53.002;6.506;2022-08-21T04:41:11;6.32;;;3.33;;
64714;SDS011;51144;53.002;6.506;2022-08-21T04:43:37;8.57;;;3.47;;
64714;SDS011;51144;53.002;6.506;2022-08-21T04:46:04;6.38;;;3.63;;
64714;SDS011;51144;53.002;6.506;2022-08-21T04:48:30;10.48;;;5.00;;
64714;SDS011;51144;53.002;6.506;2022-08-21T04:51:01;10.30;;;4.65;;
64714;SDS011;51144;53.002;6.506;2022-08-21T04:53:40;14.40;;;4.60;;
64714;SDS011;51144;53.002;6.506;2022-08-21T04:56:27;6.47;;;3.28;;
64714;SDS011;51144;53.002;6.506;2022-08-21T04:58:57;10.98;;;3.88;;
64714;SDS011;51144;53.002;6.506;2022-08-21T05:01:27;10.82;;;4.43;;
64714;SDS011;51144;53.002;6.506;2022-08-21T05:03:59;6.95;;;3.75;;
64714;SDS011;51144;53.002;6.506;2022-08-21T05:06:27;7.15;;;3.67;;
64714;SDS011;51144;53.002;6.506;2022-08-21T05:08:55;4.82;;;3.00;;
64714;SDS011;51144;53.002;6.506;2022-08-21T05:11:22;7.60;;;3.45;;
64714;SDS011;51144;53.002;6.506;2022-08-21T05:13:48;8.52;;;3.55;;
64714;SDS011;51144;53.002;6.506;2022-08-21T05:16:14;4.45;;;2.75;;
64714;SDS011;51144;53.002;6.506;2022-08-21T05:18:41;5.72;;;2.78;;
64714;SDS011;51144;53.002;6.506;2022-08-21T05:21:06;7.35;;;2.90;;
64714;SDS011;51144;53.002;6.506;2022-08-21T05:23:32;9.57;;;2.85;;
64714;SDS011;51144;53.002;6.506;2022-08-21T12:39:22;5.10;;;1.85;;
64714;SDS011;51144;53.002;6.506;2022-08-21T12:42:00;7.32;;;0.75;;
64714;SDS011;51144;53.002;6.506;2022-08-21T12:44:43;5.05;;;0.93;;
64714;SDS011;51144;53.002;6.506;2022-08-21T12:47:33;5.18;;;0.85;;
64714;SDS011;51144;53.002;6.506;2022-08-21T12:50:11;7.30;;;1.10;;
64714;SDS011;51144;53.002;6.506;2022-08-21T12:52:48;8.82;;;0.90;;
64714;SDS011;51144;53.002;6.506;2022-08-21T12:55:25;7.18;;;1.05;;
64714;SDS011;51144;53.002;6.506;2022-08-21T12:57:53;8.20;;;1.30;;
64714;SDS011;51144;53.002;6.506;2022-08-21T13:00:21;6.50;;;0.88;;
64714;SDS011;51144;53.002;6.506;2022-08-21T13:02:49;4.60;;;0.90;;
64714;SDS011;51144;53.002;6.506;2022-08-21T13:05:19;7.55;;;0.68;;
64714;SDS011;51144;53.002;6.506;2022-08-21T13:07:57;5.47;;;0.85;;
64714;SDS011;51144;53.002;6.506;2022-08-21T13:10:28;5.45;;;1.45;;
64714;SDS011;51144;53.002;6.506;2022-08-21T13:12:59;3.58;;;0.98;;
64714;SDS011;51144;53.002;6.506;2022-08-21T13:15:29;7.40;;;0.75;;
64714;SDS011;51144;53.002;6.506;2022-08-21T13:18:00;5.65;;;1.05;;
64714;SDS011;51144;53.002;6.506;2022-08-21T13:20:31;8.85;;;1.75;;
64714;SDS011;51144;53.002;6.506;2022-08-21T13:23:00;4.53;;;0.50;;
64714;SDS011;51144;53.002;6.506;2022-08-21T13:25:46;5.25;;;0.65;;
64714;SDS011;51144;53.002;6.506;2022-08-21T13:28:12;5.90;;;0.88;;
64714;SDS011;51144;53.002;6.506;2022-08-21T13:30:43;6.43;;;1.10;;
64714;SDS011;51144;53.002;6.506;2022-08-21T13:33:14;6.75;;;0.73;;
64714;SDS011;51144;53.002;6.506;2022-08-21T13:38:22;6.53;;;0.63;;
64714;SDS011;51144;53.002;6.506;2022-08-21T13:41:37;6.18;;;0.88;;
64714;SDS011;51144;53.002;6.506;2022-08-21T13:43:43;1.75;;;0.50;;
64714;SDS011;51144;53.002;6.506;2022-08-21T13:46:11;6.32;;;0.60;;
64714;SDS011;51144;53.002;6.506;2022-08-21T13:48:39;3.35;;;0.65;;
64714;SDS011;51144;53.002;6.506;2022-08-21T13:51:06;5.38;;;1.00;;
64714;SDS011;51144;53.002;6.506;2022-08-21T13:56:42;4.18;;;0.80;;
64714;SDS011;51144;53.002;6.506;2022-08-21T13:59:11;4.82;;;0.90;;
64714;SDS011;51144;53.002;6.506;2022-08-21T14:01:37;5.38;;;0.90;;
64714;SDS011;51144;53.002;6.506;2022-08-21T14:04:18;4.75;;;0.68;;
64714;SDS011;51144;53.002;6.506;2022-08-21T14:06:55;3.60;;;0.45;;
64714;SDS011;51144;53.002;6.506;2022-08-21T14:09:32;4.18;;;0.65;;
64714;SDS011;51144;53.002;6.506;2022-08-21T14:12:02;4.20;;;0.70;;
64714;SDS011;51144;53.002;6.506;2022-08-21T14:14:37;4.80;;;0.70;;
64714;SDS011;51144;53.002;6.506;2022-08-21T14:17:06;3.38;;;0.40;;
64714;SDS011;51144;53.002;6.506;2022-08-21T14:19:41;3.58;;;0.65;;
64714;SDS011;51144;53.002;6.506;2022-08-21T14:27:55;6.90;;;0.63;;
64714;SDS011;51144;53.002;6.506;2022-08-21T14:30:38;5.20;;;1.13;;
64714;SDS011;51144;53.002;6.506;2022-08-21T14:33:08;9.10;;;1.02;;
64714;SDS011;51144;53.002;6.506;2022-08-21T14:35:48;5.80;;;1.30;;
64714;SDS011;51144;53.002;6.506;2022-08-21T14:38:15;5.43;;;1.38;;
64714;SDS011;51144;53.002;6.506;2022-08-21T14:40:42;3.35;;;0.45;;
64714;SDS011;51144;53.002;6.506;2022-08-21T14:43:12;4.65;;;0.75;;
64714;SDS011;51144;53.002;6.506;2022-08-21T14:45:37;4.35;;;0.85;;
64714;SDS011;51144;53.002;6.506;2022-08-21T14:48:06;4.78;;;0.57;;
64714;SDS011;51144;53.002;6.506;2022-08-21T14:50:32;3.33;;;0.55;;
64714;SDS011;51144;53.002;6.506;2022-08-21T14:52:58;6.68;;;1.05;;
64714;SDS011;51144;53.002;6.506;2022-08-21T14:55:24;2.67;;;0.40;;
64714;SDS011;51144;53.002;6.506;2022-08-21T14:57:54;5.45;;;0.80;;
64714;SDS011;51144;53.002;6.506;2022-08-21T15:00:22;4.30;;;1.20;;
64714;SDS011;51144;53.002;6.506;2022-08-21T15:02:50;5.32;;;0.60;;
64714;SDS011;51144;53.002;6.506;2022-08-21T15:05:16;8.20;;;0.63;;
64714;SDS011;51144;53.002;6.506;2022-08-21T15:07:43;4.95;;;0.80;;
64714;SDS011;51144;53.002;6.506;2022-08-21T15:10:09;3.47;;;0.68;;
64714;SDS011;51144;53.002;6.506;2022-08-21T15:12:35;7.75;;;1.10;;
64714;SDS011;51144;53.002;6.506;2022-08-21T15:15:02;6.80;;;0.50;;
64714;SDS011;51144;53.002;6.506;2022-08-21T15:17:29;4.85;;;0.63;;
64714;SDS011;51144;53.002;6.506;2022-08-21T15:19:55;6.22;;;0.70;;
64714;SDS011;51144;53.002;6.506;2022-08-21T15:22:21;4.28;;;0.80;;
64714;SDS011;51144;53.002;6.506;2022-08-21T15:24:46;5.63;;;0.70;;
64714;SDS011;51144;53.002;6.506;2022-08-21T15:27:15;5.93;;;0.65;;
64714;SDS011;51144;53.002;6.506;2022-08-21T15:29:43;5.68;;;0.32;;
64714;SDS011;51144;53.002;6.506;2022-08-21T15:32:22;3.70;;;0.80;;
64714;SDS011;51144;53.002;6.506;2022-08-21T15:34:51;6.95;;;0.70;;
64714;SDS011;51144;53.002;6.506;2022-08-21T15:37:18;5.75;;;1.02;;
64714;SDS011;51144;53.002;6.506;2022-08-21T15:39:44;4.85;;;0.40;;
64714;SDS011;51144;53.002;6.506;2022-08-21T15:42:09;6.00;;;0.88;;
64714;SDS011;51144;53.002;6.506;2022-08-21T15:44:40;6.78;;;0.82;;
64714;SDS011;51144;53.002;6.506;2022-08-21T15:47:14;4.55;;;0.40;;
64714;SDS011;51144;53.002;6.506;2022-08-21T15:49:42;3.17;;;0.35;;
64714;SDS011;51144;53.002;6.506;2022-08-21T15:52:10;2.33;;;0.60;;
64714;SDS011;51144;53.002;6.506;2022-08-21T15:54:40;6.93;;;1.48;;
64714;SDS011;51144;53.002;6.506;2022-08-21T15:57:05;2.88;;;0.50;;
64714;SDS011;51144;53.002;6.506;2022-08-21T15:59:32;4.13;;;0.50;;
64714;SDS011;51144;53.002;6.506;2022-08-21T16:02:06;5.10;;;0.70;;
64714;SDS011;51144;53.002;6.506;2022-08-21T16:04:36;4.65;;;0.75;;
64714;SDS011;51144;53.002;6.506;2022-08-21T16:07:04;3.75;;;0.55;;
64714;SDS011;51144;53.002;6.506;2022-08-21T16:09:30;1.40;;;0.40;;
64714;SDS011;51144;53.002;6.506;2022-08-21T16:11:55;3.63;;;0.57;;
64714;SDS011;51144;53.002;6.506;2022-08-21T16:14:22;3.58;;;0.60;;
64714;SDS011;51144;53.002;6.506;2022-08-21T16:16:48;4.75;;;0.30;;
64714;SDS011;51144;53.002;6.506;2022-08-21T16:19:13;3.63;;;0.40;;
64714;SDS011;51144;53.002;6.506;2022-08-21T16:21:39;7.25;;;1.05;;
64714;SDS011;51144;53.002;6.506;2022-08-21T16:24:05;3.33;;;0.82;;
64714;SDS011;51144;53.002;6.506;2022-08-21T16:26:31;4.15;;;0.82;;
64714;SDS011;51144;53.002;6.506;2022-08-21T16:28:57;6.40;;;0.47;;
64714;SDS011;51144;53.002;6.506;2022-08-21T16:31:28;5.60;;;0.82;;
64714;SDS011;51144;53.002;6.506;2022-08-21T16:33:55;4.05;;;0.40;;
64714;SDS011;51144;53.002;6.506;2022-08-21T16:36:22;5.57;;;0.70;;
64714;SDS011;51144;53.002;6.506;2022-08-21T16:38:50;3.67;;;0.38;;
64714;SDS011;51144;53.002;6.506;2022-08-21T16:41:18;3.95;;;0.65;;
64714;SDS011;51144;53.002;6.506;2022-08-21T16:43:45;4.93;;;0.77;;
64714;SDS011;51144;53.002;6.506;2022-08-21T16:46:13;3.95;;;0.50;;
64714;SDS011;51144;53.002;6.506;2022-08-21T16:48:40;5.20;;;0.88;;
64714;SDS011;51144;53.002;6.506;2022-08-21T16:51:08;3.58;;;0.70;;
64714;SDS011;51144;53.002;6.506;2022-08-21T16:56:21;7.97;;;1.23;;
64714;SDS011;51144;53.002;6.506;2022-08-21T16:58:47;3.97;;;0.40;;
64714;SDS011;51144;53.002;6.506;2022-08-21T17:01:15;4.65;;;0.50;;
64714;SDS011;51144;53.002;6.506;2022-08-21T17:03:44;5.00;;;0.88;;
64714;SDS011;51144;53.002;6.506;2022-08-21T17:06:11;3.92;;;0.35;;
64714;SDS011;51144;53.002;6.506;2022-08-21T17:08:38;5.10;;;1.10;;
64714;SDS011;51144;53.002;6.506;2022-08-21T17:11:04;3.53;;;0.50;;
64714;SDS011;51144;53.002;6.506;2022-08-21T17:13:32;4.28;;;0.57;;
64714;SDS011;51144;53.002;6.506;2022-08-21T17:15:59;4.43;;;0.70;;
64714;SDS011;51144;53.002;6.506;2022-08-21T17:18:24;3.72;;;0.30;;
64714;SDS011;51144;53.002;6.506;2022-08-21T17:20:51;5.03;;;0.82;;
64714;SDS011;51144;53.002;6.506;2022-08-21T17:23:18;5.22;;;0.90;;
64714;SDS011;51144;53.002;6.506;2022-08-21T17:25:44;5.45;;;0.60;;
64714;SDS011;51144;53.002;6.506;2022-08-21T17:28:20;6.35;;;0.95;;
64714;SDS011;51144;53.002;6.506;2022-08-21T17:30:48;3.78;;;0.60;;
64714;SDS011;51144;53.002;6.506;2022-08-21T17:33:16;5.47;;;0.93;;
64714;SDS011;51144;53.002;6.506;2022-08-21T17:35:43;6.18;;;0.80;;
64714;SDS011;51144;53.002;6.506;2022-08-21T17:38:09;6.93;;;0.60;;
64714;SDS011;51144;53.002;6.506;2022-08-21T17:40:36;5.93;;;0.90;;
64714;SDS011;51144;53.002;6.506;2022-08-21T17:43:02;7.57;;;0.68;;
64714;SDS011;51144;53.002;6.506;2022-08-21T17:45:28;8.80;;;0.80;;
64714;SDS011;51144;53.002;6.506;2022-08-21T17:47:54;5.90;;;0.77;;
64714;SDS011;51144;53.002;6.506;2022-08-21T17:50:20;5.88;;;0.68;;
64714;SDS011;51144;53.002;6.506;2022-08-21T17:52:46;6.20;;;0.75;;
64714;SDS011;51144;53.002;6.506;2022-08-21T17:55:15;6.20;;;0.60;;
64714;SDS011;51144;53.002;6.506;2022-08-21T17:57:42;10.05;;;0.80;;
64714;SDS011;51144;53.002;6.506;2022-08-21T18:00:10;5.50;;;0.88;;
64714;SDS011;51144;53.002;6.506;2022-08-21T18:02:38;8.48;;;1.25;;
64714;SDS011;51144;53.002;6.506;2022-08-21T18:05:05;9.52;;;0.70;;
64714;SDS011;51144;53.002;6.506;2022-08-21T18:07:32;4.22;;;0.57;;
64714;SDS011;51144;53.002;6.506;2022-08-21T18:10:03;6.35;;;1.45;;
64714;SDS011;51144;53.002;6.506;2022-08-21T18:12:31;4.47;;;0.60;;
64714;SDS011;51144;53.002;6.506;2022-08-21T18:14:57;7.45;;;1.10;;
64714;SDS011;51144;53.002;6.506;2022-08-21T18:17:24;6.25;;;1.05;;
64714;SDS011;51144;53.002;6.506;2022-08-21T18:19:52;2.20;;;0.40;;
64714;SDS011;51144;53.002;6.506;2022-08-21T18:22:18;6.00;;;1.15;;
64714;SDS011;51144;53.002;6.506;2022-08-21T18:24:43;8.70;;;1.02;;
64714;SDS011;51144;53.002;6.506;2022-08-21T18:27:10;3.78;;;0.50;;
64714;SDS011;51144;53.002;6.506;2022-08-21T18:29:37;5.78;;;0.73;;
64714;SDS011;51144;53.002;6.506;2022-08-21T18:32:04;7.20;;;1.15;;
64714;SDS011;51144;53.002;6.506;2022-08-21T18:34:35;10.43;;;0.80;;
64714;SDS011;51144;53.002;6.506;2022-08-21T18:37:05;3.83;;;0.98;;
64714;SDS011;51144;53.002;6.506;2022-08-21T18:39:32;3.30;;;0.35;;
64714;SDS011;51144;53.002;6.506;2022-08-21T18:41:57;5.13;;;1.05;;
64714;SDS011;51144;53.002;6.506;2022-08-21T18:44:29;5.07;;;1.75;;
64714;SDS011;51144;53.002;6.506;2022-08-21T18:47:03;4.60;;;1.08;;
64714;SDS011;51144;53.002;6.506;2022-08-21T18:49:31;4.13;;;0.40;;
64714;SDS011;51144;53.002;6.506;2022-08-21T18:51:57;6.68;;;0.75;;
64714;SDS011;51144;53.002;6.506;2022-08-21T18:54:22;4.88;;;1.17;;
64714;SDS011;51144;53.002;6.506;2022-08-21T18:56:48;6.50;;;0.60;;
64714;SDS011;51144;53.002;6.506;2022-08-21T18:59:14;8.13;;;1.20;;
64714;SDS011;51144;53.002;6.506;2022-08-21T19:01:41;5.40;;;0.80;;
64714;SDS011;51144;53.002;6.506;2022-08-21T19:04:10;3.53;;;0.60;;
64714;SDS011;51144;53.002;6.506;2022-08-21T19:06:36;6.93;;;1.60;;
64714;SDS011;51144;53.002;6.506;2022-08-21T19:09:06;9.60;;;0.90;;
64714;SDS011;51144;53.002;6.506;2022-08-21T19:11:34;5.20;;;0.68;;
64714;SDS011;51144;53.002;6.506;2022-08-21T19:14:04;5.10;;;0.60;;
64714;SDS011;51144;53.002;6.506;2022-08-21T19:16:31;5.47;;;0.85;;
64714;SDS011;51144;53.002;6.506;2022-08-21T19:18:58;4.88;;;1.08;;
64714;SDS011;51144;53.002;6.506;2022-08-21T19:21:25;6.97;;;1.58;;
64714;SDS011;51144;53.002;6.506;2022-08-21T19:23:53;3.80;;;0.75;;
64714;SDS011;51144;53.002;6.506;2022-08-21T19:26:21;10.15;;;1.23;;
64714;SDS011;51144;53.002;6.506;2022-08-21T19:28:50;5.82;;;0.90;;
64714;SDS011;51144;53.002;6.506;2022-08-21T19:31:19;9.13;;;1.75;;
64714;SDS011;51144;53.002;6.506;2022-08-21T19:34:00;5.53;;;0.63;;
64714;SDS011;51144;53.002;6.506;2022-08-21T19:36:29;6.68;;;0.88;;
64714;SDS011;51144;53.002;6.506;2022-08-21T19:38:55;5.93;;;0.90;;
64714;SDS011;51144;53.002;6.506;2022-08-21T19:41:22;8.98;;;1.33;;
64714;SDS011;51144;53.002;6.506;2022-08-21T19:43:52;5.57;;;1.00;;
64714;SDS011;51144;53.002;6.506;2022-08-21T19:46:28;3.95;;;0.60;;
64714;SDS011;51144;53.002;6.506;2022-08-21T19:48:55;8.68;;;0.82;;
64714;SDS011;51144;53.002;6.506;2022-08-21T19:51:22;6.88;;;0.57;;
64714;SDS011;51144;53.002;6.506;2022-08-21T19:53:49;5.78;;;1.00;;
64714;SDS011;51144;53.002;6.506;2022-08-21T19:56:18;5.20;;;1.25;;
64714;SDS011;51144;53.002;6.506;2022-08-21T19:58:46;4.68;;;0.95;;
64714;SDS011;51144;53.002;6.506;2022-08-21T20:01:13;5.00;;;1.20;;
64714;SDS011;51144;53.002;6.506;2022-08-21T20:03:40;6.22;;;1.10;;
64714;SDS011;51144;53.002;6.506;2022-08-21T20:06:06;6.75;;;0.90;;
64714;SDS011;51144;53.002;6.506;2022-08-21T20:08:33;4.10;;;1.00;;
64714;SDS011;51144;53.002;6.506;2022-08-21T20:10:59;7.22;;;1.10;;
64714;SDS011;51144;53.002;6.506;2022-08-21T20:13:29;6.65;;;0.85;;
64714;SDS011;51144;53.002;6.506;2022-08-21T20:15:57;10.05;;;1.52;;
64714;SDS011;51144;53.002;6.506;2022-08-21T20:18:29;3.88;;;0.90;;
64714;SDS011;51144;53.002;6.506;2022-08-21T20:20:56;9.48;;;0.90;;
64714;SDS011;51144;53.002;6.506;2022-08-21T20:23:22;7.07;;;1.17;;
64714;SDS011;51144;53.002;6.506;2022-08-21T20:25:48;4.32;;;1.10;;
64714;SDS011;51144;53.002;6.506;2022-08-21T20:28:15;5.10;;;1.35;;
64714;SDS011;51144;53.002;6.506;2022-08-21T20:30:41;9.05;;;0.93;;
64714;SDS011;51144;53.002;6.506;2022-08-21T20:33:07;7.65;;;1.00;;
64714;SDS011;51144;53.002;6.506;2022-08-21T20:35:33;5.95;;;0.98;;
64714;SDS011;51144;53.002;6.506;2022-08-21T20:37:59;4.97;;;1.02;;
64714;SDS011;51144;53.002;6.506;2022-08-21T20:40:25;9.98;;;1.58;;
64714;SDS011;51144;53.002;6.506;2022-08-21T20:42:52;8.05;;;1.25;;
64714;SDS011;51144;53.002;6.506;2022-08-21T20:45:23;5.53;;;0.85;;
64714;SDS011;51144;53.002;6.506;2022-08-21T20:48:25;11.23;;;1.92;;
64714;SDS011;51144;53.002;6.506;2022-08-21T20:50:59;3.20;;;1.30;;
64714;SDS011;51144;53.002;6.506;2022-08-21T20:53:42;8.38;;;1.50;;
64714;SDS011;51144;53.002;6.506;2022-08-21T20:56:18;7.07;;;1.25;;
64714;SDS011;51144;53.002;6.506;2022-08-21T20:59:19;4.43;;;1.20;;
64714;SDS011;51144;53.002;6.506;2022-08-21T21:02:08;4.27;;;0.90;;
64714;SDS011;51144;53.002;6.506;2022-08-21T21:07:33;5.97;;;0.80;;
64714;SDS011;51144;53.002;6.506;2022-08-21T21:10:11;5.78;;;1.20;;
64714;SDS011;51144;53.002;6.506;2022-08-21T21:12:48;7.30;;;1.10;;
64714;SDS011;51144;53.002;6.506;2022-08-21T21:15:27;6.00;;;1.25;;
64714;SDS011;51144;53.002;6.506;2022-08-21T21:18:29;7.28;;;2.03;;
64714;SDS011;51144;53.002;6.506;2022-08-21T21:21:03;10.67;;;1.67;;
64714;SDS011;51144;53.002;6.506;2022-08-21T21:23:48;4.72;;;1.10;;
64714;SDS011;51144;53.002;6.506;2022-08-21T21:31:12;7.05;;;1.27;;
64714;SDS011;51144;53.002;6.506;2022-08-21T21:33:38;6.80;;;1.30;;
64714;SDS011;51144;53.002;6.506;2022-08-21T21:36:11;8.63;;;1.48;;
64714;SDS011;51144;53.002;6.506;2022-08-21T21:38:59;7.38;;;1.58;;
64714;SDS011;51144;53.002;6.506;2022-08-21T22:02:03;9.48;;;1.42;;
64714;SDS011;51144;53.002;6.506;2022-08-21T22:04:39;8.03;;;1.87;;
64714;SDS011;51144;53.002;6.506;2022-08-21T22:07:07;6.90;;;1.30;;
64714;SDS011;51144;53.002;6.506;2022-08-21T22:09:49;5.45;;;1.33;;
64714;SDS011;51144;53.002;6.506;2022-08-21T22:12:30;4.72;;;0.80;;
64714;SDS011;51144;53.002;6.506;2022-08-21T22:15:04;2.13;;;0.50;;
64714;SDS011;51144;53.002;6.506;2022-08-21T22:17:55;4.68;;;0.85;;
64714;SDS011;51144;53.002;6.506;2022-08-21T22:21:00;5.95;;;1.58;;
64714;SDS011;51144;53.002;6.506;2022-08-21T22:23:22;4.80;;;1.15;;
64714;SDS011;51144;53.002;6.506;2022-08-21T22:25:51;9.45;;;1.48;;
64714;SDS011;51144;53.002;6.506;2022-08-21T22:28:23;7.82;;;1.30;;
64714;SDS011;51144;53.002;6.506;2022-08-21T22:30:52;6.20;;;2.13;;
64714;SDS011;51144;53.002;6.506;2022-08-21T22:33:22;4.65;;;0.75;;
64714;SDS011;51144;53.002;6.506;2022-08-21T22:35:53;7.40;;;1.73;;
64714;SDS011;51144;53.002;6.506;2022-08-21T22:40:51;4.30;;;0.90;;
64714;SDS011;51144;53.002;6.506;2022-08-21T22:43:32;6.25;;;0.98;;
64714;SDS011;51144;53.002;6.506;2022-08-21T22:46:05;7.40;;;1.30;;
64714;SDS011;51144;53.002;6.506;2022-08-21T22:48:33;7.35;;;1.27;;
64714;SDS011;51144;53.002;6.506;2022-08-21T22:51:06;5.53;;;0.95;;
64714;SDS011;51144;53.002;6.506;2022-08-21T22:53:36;8.23;;;1.10;;
64714;SDS011;51144;53.002;6.506;2022-08-21T22:56:05;8.20;;;1.58;;
64714;SDS011;51144;53.002;6.506;2022-08-21T22:58:39;7.10;;;1.50;;
64714;SDS011;51144;53.002;6.506;2022-08-21T23:03:55;9.73;;;2.10;;
64714;SDS011;51144;53.002;6.506;2022-08-21T23:09:07;9.27;;;1.55;;